Tiempo atmosférico en la estación meteorológica de Carmona, Sevilla (50 m.)



Fecha
DESCASC
Temp. máxima en grados centígrados (hora)
DESCASC
Temp. mínima en grados centígrados (hora)
DESCASC
Temp. media en grados centígrados
DESCASC
Racha de viento máxima en m/sg (hora)
DESCASC
Velocidad máxima media en intervalos de 10 minutos(hora)
DESCASC
Precipitaciones diarias en mm
DESCASC
Precipitaciones de 00:00 a 06:00 en mm
DESCASC
Precipitaciones de 06:00 a 12:00 en mm
DESCASC
Precipitaciones de 12:00 a 18:00 en mm
DESCASC
Precipitaciones de 18:00 a 24:00 en mm
DESCASC
25-04-2019 20.2 (18:50) 12.5 (05:00) 16.4 13.33 (13:40) 7.5 (16:00) 1.6 1.4 0.2 0 0
24-04-2019 16.6 (14:40) 7.6 (06:00) 12.1 16.39 (16:20) 10 (16:20) 5.4 0 0 3.8 1.6
23-04-2019 16.7 (18:00) 10.1 (23:59) 13.4 15.83 (14:20) 9.44 (17:10) 7.6 3.4 3.2 1 0
22-04-2019 25.5 (17:10) 11.4 (00:00) 18.4 13.06 (20:30) 8.61 (19:10) 0 0 0 0 0
21-04-2019 20.9 (15:30) 12.7 (00:00) 16.8 7.78 (18:20) 5.28 (18:20) 0 0 0 0 0
20-04-2019 20.7 (17:20) 10.2 (00:00) 15.5 10.28 (16:10) 6.67 (16:30) 0.2 0 0 0.2 0
19-04-2019 21.8 (18:10) 9.5 (00:00) 15.6 11.11 (18:50) 7.22 (18:50) 4.2 0 0 0 4.2
18-04-2019 19.7 (16:00) 11.3 (00:00) 15.5 11.67 (16:30) 7.78 (16:30) 2 0 0.6 1.2 0.2
17-04-2019 22.8 (15:40) 10.1 (00:00) 16.4 14.44 (16:40) 9.17 (18:10) 0 0 0 0 0
16-04-2019 26.6 (18:00) 9.6 (00:00) 18.1 8.06 (18:50) 4.44 (19:00) 0 0 0 0 0
15-04-2019 26.8 (15:40) 12.9 (00:00) 19.8 14.72 (17:30) 9.17 (17:30) 0 0 0 0 0
14-04-2019 27.7 (18:50) 10.2 (00:00) 19 5 (09:10) 3.33 (18:40) 0 0 0 0 0
13-04-2019 25.2 (18:30) 8.2 (00:00) 16.7 8.61 (20:10) 5.83 (20:10) 0 0 0 0 0
12-04-2019 24 (18:20) 7.5 (00:00) 15.8 8.33 (21:00) 4.72 (21:00) 0 0 0 0 0
11-04-2019 22.5 (17:30) 8.1 (00:00) 15.3 7.22 (18:00) 5 (18:00) 0 0 0 0 0
10-04-2019 21.8 (17:10) 8.8 (00:00) 15.3 9.44 (16:40) 5.83 (17:20) 0 0 0 0 0
09-04-2019 18.4 (15:50) 7.7 (00:00) 13 12.5 (16:20) 7.22 (18:50) 0.4 0 0 0.2 0.2
08-04-2019 18.4 (15:00) 12.3 (00:00) 15.3 12.22 (15:20) 7.78 (15:20) 5.8 1 3 1.8 0
07-04-2019 15.9 (13:20) 8.9 (00:00) 12.4 10 (14:00) 6.67 (14:20) 3.6 0 0.2 0 3.4
06-04-2019 14.8 (13:50) 6.9 (00:00) 10.9 15.28 (14:10) 9.17 (14:10) 4.4 0 0.2 4.2 0
05-04-2019 16.3 (17:40) 8.9 (00:00) 12.6 13.89 (18:30) 9.72 (18:30) 7.6 0.8 5.8 0 1
04-04-2019 20.1 (17:30) 6.7 (00:00) 13.4 12.22 (19:50) 7.5 (19:50) 0 0 0 0 0
03-04-2019 23.4 (16:10) 8.4 (08:10) 15.9 14.44 (16:30) 8.89 (17:00) 0 0 0 0 0
02-04-2019 23.6 (18:20) 10.9 (00:00) 17.3 4.72 (19:30) 3.06 (17:50) 0 0 0 0 0
01-04-2019 18.5 (18:40) 12.4 (00:00) 15.4 8.33 (14:10) 5.28 (12:20) 2.8 0 0 1 1.8
31-03-2019 23.7 (16:30) 11.1 (00:00) 17.4 10.56 (16:40) 6.39 (16:50) 0.8 0.4 0 0.2 0.2
30-03-2019 24.4 (16:10) 11.1 (00:00) 17.8 10.83 (10:50) 7.22 (10:00) 0 0 0 0 0
29-03-2019 24.3 (16:40) 8.6 (00:00) 16.4 11.94 (10:30) 7.5 (09:30) 0 0 0 0 0
28-03-2019 22.5 (15:20) 7.9 (00:00) 15.2 14.17 (13:30) 8.89 (15:20) 0 0 0 0 0
27-03-2019 23.3 (16:50) 11.1 (00:00) 17.2 9.72 (15:40) 6.67 (13:10) 0 0 0 0 0

Gráficas

Temp. máximas Temp. mínimas Temp. medias Precipitaciones Rachas de viento máximas Velocidades máximas media en intervalos de 10 minutos

Datos horarios

Fecha y hora oficial Temperatura (ºC) Velocidad del viento (km/h) Dirección del viento Racha (km/h) Dirección de racha Precipitación (mm) Presión (hPa) Tendencia (hPa) Humedad (%)
2019-04-25 23:00:00 13 6 Sudoeste 10 Oeste 0 -- -- 66
2019-04-25 22:00:00 14.1 10 Oeste 15 Oeste 0 -- -- 61
2019-04-25 21:00:00 16.9 12 Noroeste 30 Oeste 0 -- -- 48
2019-04-25 20:00:00 19.1 21 Oeste 39 Oeste 0 -- -- 39
2019-04-25 19:00:00 20.1 26 Oeste 45 Noroeste 0 -- -- 39
2019-04-25 18:00:00 19.4 22 Oeste 39 Oeste 0 -- -- 47
2019-04-25 17:00:00 18.9 23 Oeste 36 Oeste 0 -- -- 51
2019-04-25 16:00:00 19.1 27 Oeste 40 Sudoeste 0 -- -- 49
2019-04-25 15:00:00 19.1 21 Oeste 35 Oeste 0 -- -- 52
2019-04-25 14:00:00 17.6 23 Oeste 48 Oeste 0 -- -- 52
2019-04-25 13:00:00 17.8 18 Oeste 32 Oeste 0 -- -- 58
2019-04-25 12:00:00 16.3 18 Oeste 30 Sudoeste 0 -- -- 69
2019-04-25 11:00:00 15.9 18 Oeste 26 Oeste 0 -- -- 74
2019-04-25 10:00:00 14.7 13 Oeste 22 Oeste 0 -- -- 83
2019-04-25 09:00:00 13.7 15 Oeste 24 Oeste 0 -- -- 91
2019-04-25 08:00:00 13.3 11 Oeste 19 Oeste 0 -- -- 92
2019-04-25 07:00:00 12.9 12 Oeste 19 Sudoeste 0.2 -- -- 91
2019-04-25 06:00:00 12.6 10 Oeste 23 Oeste 0 -- -- 89
2019-04-25 05:00:00 12.5 16 Oeste 42 Oeste 1.2 -- -- 90
2019-04-25 04:00:00 15.2 21 Sudoeste 40 Sudoeste 0 -- -- 88
2019-04-25 03:00:00 15.1 21 Sudoeste 38 Sudoeste 0 -- -- 88
2019-04-25 02:00:00 15.2 20 Sudoeste 44 Sudoeste 0 -- -- 88
2019-04-25 01:00:00 15.5 24 Sudoeste 40 Sudoeste 0.2 -- -- 88
2019-04-25 00:00:00 15.6 23 Sudoeste 40 Sudoeste 0.2 -- -- 88
2019-04-24 23:00:00 15.3 21 Sudoeste 46 Sudoeste 0.4 -- -- 89
2019-04-24 22:00:00 15.3 26 Sudoeste 46 Sudoeste 0.8 -- -- 89
2019-04-24 21:00:00 15.6 26 Sudoeste 53 Sudoeste 0 -- -- 85
2019-04-24 20:00:00 16.1 32 Sudoeste 49 Sudoeste 0 -- -- 81
2019-04-24 19:00:00 15.4 28 Sudoeste 49 Sudoeste 0.2 -- -- 86
2019-04-24 18:00:00 15.2 28 Sudoeste 50 Sudoeste 0.6 -- -- 86
2019-04-24 17:00:00 15.6 25 Sudoeste 59 Sudoeste 1.2 -- -- 88
2019-04-24 16:00:00 15.9 25 Sudoeste 53 Sudoeste 0.2 -- -- 79
2019-04-24 15:00:00 15.5 34 Sudoeste 53 Sudoeste 1 -- -- 81
2019-04-24 14:00:00 14.5 27 Sudoeste 51 Sudoeste 0.8 -- -- 85
2019-04-24 13:00:00 15.8 30 Sudoeste 54 Sur 0 -- -- 74
2019-04-24 12:00:00 15.8 28 Sudoeste 50 Sur 0 -- -- 68
2019-04-24 11:00:00 15.1 21 Sudoeste 37 Sudoeste 0 -- -- 72
2019-04-24 10:00:00 13.2 8 Sur 18 Sudoeste 0 -- -- 82
2019-04-24 09:00:00 11.2 9 Sur 17 Sur 0 -- -- 92
2019-04-24 08:00:00 8.1 0 Calma 9 Nordeste 0 -- -- 91
2019-04-24 07:00:00 7.7 5 Nordeste 9 Nordeste 0 -- -- 91
2019-04-24 06:00:00 7.6 5 Nordeste 7 Nordeste 0 -- -- 89
2019-04-24 05:00:00 8.1 6 Sudeste 7 Sudeste 0 -- -- 88
2019-04-24 04:00:00 9.1 5 Sudoeste 9 Sudoeste 0 -- -- 86
2019-04-24 03:00:00 9.3 5 Sudoeste 11 Sudoeste 0 -- -- 85
2019-04-24 02:00:00 10 6 Sudoeste 14 Sudoeste 0 -- -- 83
2019-04-24 01:00:00 10.1 7 Sudoeste 13 Sudoeste 0 -- -- 83
2019-04-24 00:00:00 10.1 3 Sudoeste 6 Sudoeste 0 -- -- 82
2019-04-23 23:00:00 10.9 3 Oeste 18 Oeste 0 -- -- 80
2019-04-23 22:00:00 12.2 12 Oeste 36 Oeste 0 -- -- 71
2019-04-23 21:00:00 13.1 18 Oeste 43 Sudoeste 0 -- -- 60
2019-04-23 20:00:00 14.5 28 Oeste 46 Oeste 0 -- -- 55
2019-04-23 19:00:00 16.1 24 Oeste 39 Oeste 0 -- -- 47
2019-04-23 18:00:00 16.7 27 Oeste 55 Oeste 0.2 -- -- 46
2019-04-23 17:00:00 16 25 Oeste 43 Sudoeste 0 -- -- 49
2019-04-23 16:00:00 15.8 26 Oeste 39 Oeste 0 -- -- 54
2019-04-23 15:00:00 13.7 22 Oeste 57 Sudoeste 0.6 -- -- 64
2019-04-23 14:00:00 13.2 19 Sudoeste 39 Oeste 0 -- -- 63
2019-04-23 13:00:00 12.4 14 Oeste 52 Oeste 0.2 -- -- 72
2019-04-23 12:00:00 13.9 21 Oeste 31 Sudoeste 0 -- -- 64
2019-04-23 11:00:00 13.5 16 Oeste 28 Oeste 0 -- -- 67
2019-04-23 10:00:00 12.2 16 Oeste 27 Oeste 0 -- -- 81
2019-04-23 09:00:00 11.6 15 Sudoeste 24 Sudoeste 0 -- -- 84
2019-04-23 08:00:00 11.7 18 Oeste 26 Oeste 0 -- -- 83
2019-04-23 07:00:00 11.6 11 Noroeste 48 Oeste 3.2 -- -- 87
2019-04-23 06:00:00 13.8 26 Sudoeste 46 Sudoeste 3 -- -- 87
2019-04-23 05:00:00 14.3 13 Sur 27 Sudoeste 0.2 -- -- 83
2019-04-23 04:00:00 14.9 13 Sudoeste 31 Sudoeste 0.2 -- -- 78
2019-04-23 03:00:00 15 17 Sudoeste 33 Sudoeste 0 -- -- 73
2019-04-23 02:00:00 15 18 Sudoeste 31 Sudoeste 0 -- -- 71
2019-04-23 01:00:00 15.3 17 Sudoeste 34 Sudoeste 0 -- -- 71
2019-04-23 00:00:00 15.5 14 Sudoeste 31 Sudoeste 0 -- -- 74
2019-04-22 23:00:00 15.6 17 Sudoeste 33 Sudoeste 0 -- -- 75
2019-04-22 22:00:00 16.8 21 Sudoeste 42 Sudoeste 0 -- -- 67
2019-04-22 21:00:00 19.3 22 Sudoeste 47 Sudoeste 0 -- -- 51
2019-04-22 20:00:00 21.7 29 Sudoeste 45 Sudoeste 0 -- -- 40
2019-04-22 19:00:00 23.5 29 Oeste 45 Oeste 0 -- -- 36
2019-04-22 18:00:00 24.9 25 Oeste 45 Sudoeste 0 -- -- 25
2019-04-22 17:00:00 25.2 24 Oeste 39 Oeste 0 -- -- 27
2019-04-22 16:00:00 23.7 18 Sudoeste 36 Sudoeste 0 -- -- 36
2019-04-22 15:00:00 22.5 13 Sudoeste 30 Oeste 0 -- -- 40
2019-04-22 14:00:00 20.9 14 Sudoeste 25 Oeste 0 -- -- 45
2019-04-22 13:00:00 19.7 12 Oeste 20 Oeste 0 -- -- 49
2019-04-22 12:00:00 17.7 7 Oeste 13 Oeste 0 -- -- 53
2019-04-22 11:00:00 14.8 2 Noroeste 5 Oeste 0 -- -- 66
2019-04-22 10:00:00 14.5 3 Noroeste 5 Noroeste 0 -- -- 69
2019-04-22 09:00:00 13 2 Norte 7 Nordeste 0 -- -- 81
2019-04-22 08:00:00 11.8 7 Nordeste 9 Nordeste 0 -- -- 81
2019-04-22 07:00:00 11.6 0 Calma 7 Oeste 0 -- -- 83
2019-04-22 06:00:00 11.6 5 Sudoeste 8 Sudoeste 0 -- -- 82
2019-04-22 05:00:00 12.2 0 Calma 6 Sur 0 -- -- 79
2019-04-22 04:00:00 13.3 0 Calma 8 Oeste 0 -- -- 77
2019-04-22 03:00:00 13.6 6 Noroeste 9 Noroeste 0 -- -- 75
2019-04-22 02:00:00 13.9 4 Noroeste 8 Noroeste 0 -- -- 76
2019-04-22 01:00:00 14.7 3 Nordeste 8 Este 0 -- -- 71
2019-04-22 00:00:00 15.1 6 Este 10 Nordeste 0 -- -- 60
2019-04-21 23:00:00 15.7 5 Nordeste 15 Este 0 -- -- 60
2019-04-21 22:00:00 16.9 9 Este 14 Este 0 -- -- 54
2019-04-21 21:00:00 17.8 12 Este 18 Este 0 -- -- 51
2019-04-21 20:00:00 18.6 9 Este 19 Este 0 -- -- 51
2019-04-21 19:00:00 18.9 14 Este 28 Este 0 -- -- 48
2019-04-21 18:00:00 19.8 12 Este 18 Este 0 -- -- 46
2019-04-21 17:00:00 20.4 4 Este 14 Este 0 -- -- 45
2019-04-21 16:00:00 20.4 7 Este 14 Este 0 -- -- 43
2019-04-21 15:00:00 20.2 5 Oeste 18 Este 0 -- -- 43
2019-04-21 14:00:00 19.2 10 Nordeste 20 Norte 0 -- -- 47
2019-04-21 13:00:00 18.7 9 Nordeste 22 Este 0 -- -- 49
2019-04-21 12:00:00 17.6 12 Este 23 Nordeste 0 -- -- 52
2019-04-21 11:00:00 16 6 Nordeste 17 Norte 0 -- -- 58
2019-04-21 10:00:00 14.7 8 Norte 16 Norte 0 -- -- 62
2019-04-21 09:00:00 12.8 6 Norte 11 Norte 0 -- -- 72
2019-04-21 08:00:00 13.1 3 Noroeste 6 Nordeste 0 -- -- 77
2019-04-21 07:00:00 13.3 5 Norte 10 Nordeste 0 -- -- 72
2019-04-21 06:00:00 13.2 6 Norte 9 Norte 0 -- -- 77
2019-04-21 05:00:00 13.6 4 Este 6 Sudeste 0 -- -- 76
2019-04-21 04:00:00 13.6 4 Sur 6 Este 0 -- -- 74
2019-04-21 03:00:00 13.9 2 Este 9 Sudeste 0 -- -- 71
2019-04-21 02:00:00 14.7 7 Sudeste 22 Este 0 -- -- 64
2019-04-21 01:00:00 15.7 12 Este 23 Este 0 -- -- 59
2019-04-21 00:00:00 15.7 11 Nordeste 24 Nordeste 0 -- -- 59
2019-04-20 23:00:00 15.8 13 Norte 21 Norte 0 -- -- 59
2019-04-20 22:00:00 16.8 12 Nordeste 26 Nordeste 0 -- -- 56
2019-04-20 21:00:00 17.8 12 Nordeste 30 Nordeste 0 -- -- 53
2019-04-20 20:00:00 19.5 17 Nordeste 37 Nordeste 0 -- -- 49
2019-04-20 19:00:00 20.3 19 Nordeste 37 Nordeste 0 -- -- 48
2019-04-20 18:00:00 19.9 22 Nordeste 37 Nordeste 0 -- -- 48
2019-04-20 17:00:00 20.2 17 Nordeste 37 Nordeste 0 -- -- 51
2019-04-20 16:00:00 20.4 24 Nordeste 36 Este 0.2 -- -- 50
2019-04-20 15:00:00 19.3 11 Nordeste 22 Nordeste 0 -- -- 60
2019-04-20 14:00:00 17.7 8 Este 16 Este 0 -- -- 65
2019-04-20 13:00:00 16.7 5 Este 12 Este 0 -- -- 70
2019-04-20 12:00:00 15.2 3 Noroeste 7 Oeste 0 -- -- 74
2019-04-20 11:00:00 14.1 4 Noroeste 7 Noroeste 0 -- -- 82
2019-04-20 10:00:00 12 3 Norte 7 Nordeste 0 -- -- 89
2019-04-20 09:00:00 10.7 5 Norte 8 Nordeste 0 -- -- 89
2019-04-20 08:00:00 10.3 5 Norte 11 Norte 0 -- -- 89
2019-04-20 07:00:00 10.3 6 Norte 10 Norte 0 -- -- 91
2019-04-20 06:00:00 10.3 7 Norte 10 Norte 0 -- -- 91
2019-04-20 05:00:00 10.2 0 Calma 7 Nordeste 0 -- -- 91
2019-04-20 04:00:00 10.3 5 Nordeste 8 Nordeste 0 -- -- 90
2019-04-20 03:00:00 10.5 5 Nordeste 9 Norte 0 -- -- 90
2019-04-20 02:00:00 11.1 0 Calma 8 Nordeste 0 -- -- 89
2019-04-20 01:00:00 11.8 5 Norte 8 Nordeste 0 -- -- 89
2019-04-20 00:00:00 12.7 4 Este 9 Nordeste 0 -- -- 89
2019-04-19 23:00:00 13.4 6 Nordeste 9 Nordeste 0 -- -- 88
2019-04-19 22:00:00 13.9 0 Calma 8 Sur 1 -- -- 86
2019-04-19 21:00:00 14 9 Sur 15 Sudeste 0.8 -- -- 84
2019-04-19 20:00:00 13.7 6 Este 37 Sudoeste 2.4 -- -- 76
2019-04-19 19:00:00 17.7 25 Sudoeste 40 Sudoeste 0 -- -- 58
2019-04-19 18:00:00 21.7 11 Sudoeste 18 Sudoeste 0 -- -- 41
2019-04-19 17:00:00 19.9 8 Noroeste 23 Oeste 0 -- -- 47
2019-04-19 16:00:00 20.6 5 Noroeste 18 Oeste 0 -- -- 42
2019-04-19 15:00:00 20.6 6 Noroeste 14 Sur 0 -- -- 46
2019-04-19 14:00:00 18.7 6 Sudeste 14 Sur 0 -- -- 51
2019-04-19 13:00:00 17.8 5 Sudeste 14 Este 0 -- -- 55
2019-04-19 12:00:00 17.1 8 Sudeste 22 Este 0 -- -- 58
2019-04-19 11:00:00 14.3 10 Este 18 Este 0 -- -- 78
2019-04-19 10:00:00 12.5 8 Este 12 Este 0 -- -- 88
2019-04-19 09:00:00 10.6 6 Nordeste 11 Nordeste 0 -- -- 92
2019-04-19 08:00:00 9.5 3 Norte 12 Este 0 -- -- 92
2019-04-19 07:00:00 9.7 5 Nordeste 8 Nordeste 0 -- -- 91
2019-04-19 06:00:00 9.5 3 Nordeste 7 Este 0 -- -- 91
2019-04-19 05:00:00 10.2 4 Nordeste 7 Nordeste 0 -- -- 91
2019-04-19 04:00:00 10.2 5 Este 7 Nordeste 0 -- -- 90
2019-04-19 03:00:00 9.9 2 Noroeste 8 Sur 0 -- -- 88
2019-04-19 02:00:00 10.6 5 Sur 11 Sur 0 -- -- 89
2019-04-19 01:00:00 11.7 3 Oeste 7 Sudoeste 0 -- -- 89
2019-04-19 00:00:00 12 5 Oeste 10 Sur 0 -- -- 88
2019-04-18 23:00:00 12.4 5 Sur 13 Sur 0 -- -- 86
2019-04-18 22:00:00 13.1 0 Calma 6 Norte 0 -- -- 83
2019-04-18 21:00:00 14.5 5 Norte 8 Norte 0 -- -- 81
2019-04-18 20:00:00 15.4 3 Oeste 8 Norte 0 -- -- 73
2019-04-18 19:00:00 14 6 Norte 20 Oeste 0.2 -- -- 82
2019-04-18 18:00:00 13 17 Oeste 28 Oeste 1 -- -- 83
2019-04-18 17:00:00 -- -- -- -- -- 0 -- -- --
2019-04-18 16:00:00 19.7 9 Oeste 18 Sudoeste 0 -- -- 48
2019-04-18 15:00:00 19.4 9 Sudoeste 21 Sudoeste 0 -- -- 46
2019-04-18 14:00:00 17.9 9 Oeste 18 Oeste 0.2 -- -- 58
2019-04-18 13:00:00 17 4 Nordeste 11 Sudeste 0 -- -- 64
2019-04-18 12:00:00 14.1 5 Sur 14 Este 0.2 -- -- 80
2019-04-18 11:00:00 13.3 7 Noroeste 10 Noroeste 0.2 -- -- 88
2019-04-18 10:00:00 12.7 5 Oeste 13 Noroeste 0.2 -- -- 88
2019-04-18 09:00:00 12.1 0 Calma 8 Nordeste 0 -- -- 87
2019-04-18 08:00:00 11.5 0 Calma 2 Sur 0 -- -- 86
2019-04-18 07:00:00 11.5 0 Calma 6 Noroeste 0 -- -- 85
2019-04-18 06:00:00 12.4 4 Noroeste 5 Noroeste 0 -- -- 83
2019-04-18 05:00:00 13.3 2 Noroeste 4 Norte 0 -- -- 82
2019-04-18 04:00:00 13.3 2 Nordeste 4 Norte 0 -- -- 82
2019-04-18 03:00:00 13.6 0 Calma 6 Noroeste 0 -- -- 83
2019-04-18 02:00:00 13.7 2 Noroeste 4 Nordeste 0 -- -- 82
2019-04-18 01:00:00 14.1 2 Nordeste 8 Este 0 -- -- 79
2019-04-18 00:00:00 14.7 7 Noroeste 13 Noroeste 0 -- -- 77
2019-04-17 23:00:00 15.5 3 Sur 15 Noroeste 0 -- -- 67
2019-04-17 22:00:00 16.2 5 Este 17 Sudeste 0 -- -- 58
2019-04-17 21:00:00 16.5 7 Sudoeste 23 Oeste 0 -- -- 55
2019-04-17 20:00:00 16.7 18 Oeste 35 Oeste 0 -- -- 57
2019-04-17 19:00:00 17 22 Oeste 51 Oeste 0 -- -- 58
2019-04-17 18:00:00 20.6 28 Sudoeste 41 Sudoeste 0 -- -- 51
2019-04-17 17:00:00 21.4 26 Sudoeste 52 Sudoeste 0 -- -- 48
2019-04-17 16:00:00 22.5 22 Sudoeste 35 Sudoeste 0 -- -- 45
2019-04-17 15:00:00 22.3 15 Sudoeste 30 Oeste 0 -- -- 47
2019-04-17 14:00:00 21.3 14 Sudoeste 24 Sudoeste 0 -- -- 48
2019-04-17 13:00:00 19.9 13 Oeste 21 Oeste 0 -- -- 50
2019-04-17 12:00:00 18.7 9 Noroeste 15 Oeste 0 -- -- 52
2019-04-17 11:00:00 17.4 4 Nordeste 7 Este 0 -- -- 58
2019-04-17 10:00:00 15.9 2 Sudeste 15 Nordeste 0 -- -- 60
2019-04-17 09:00:00 13.1 8 Este 13 Este 0 -- -- 73
2019-04-17 08:00:00 10.7 6 Nordeste 9 Este 0 -- -- 83
2019-04-17 07:00:00 10.1 4 Nordeste 8 Nordeste 0 -- -- 83
2019-04-17 06:00:00 10.4 3 Este 8 Nordeste 0 -- -- 81
2019-04-17 05:00:00 11.1 5 Nordeste 9 Nordeste 0 -- -- 80
2019-04-17 04:00:00 11.9 7 Este 9 Nordeste 0 -- -- 80
2019-04-17 03:00:00 13.2 0 Calma 8 Este 0 -- -- 74
2019-04-17 02:00:00 14.3 5 Sudeste 11 Sudeste 0 -- -- 68
2019-04-17 01:00:00 15.1 7 Sudeste 12 Este 0 -- -- 68
2019-04-17 00:00:00 17 5 Sudoeste 14 Oeste 0 -- -- 57
2019-04-16 23:00:00 19 5 Sudoeste 16 Sudoeste 0 -- -- 56
2019-04-16 22:00:00 20.6 10 Sudoeste 15 Sudoeste 0 -- -- 47
2019-04-16 21:00:00 23.1 6 Sudoeste 21 Sur 0 -- -- 34
2019-04-16 20:00:00 26.3 11 Sur 26 Sudoeste 0 -- -- 26
2019-04-16 19:00:00 26.3 16 Sur 29 Sudeste 0 -- -- 27
2019-04-16 18:00:00 26.6 8 Sur 22 Sudoeste 0 -- -- 28
2019-04-16 17:00:00 25.9 10 Sur 26 Sudeste 0 -- -- 28
2019-04-16 16:00:00 25.3 8 Sudeste 22 Este 0 -- -- 28
2019-04-16 15:00:00 23.7 9 Sudeste 21 Este 0 -- -- 36
2019-04-16 14:00:00 22.6 11 Este 22 Nordeste 0 -- -- 43
2019-04-16 13:00:00 21.2 15 Este 23 Nordeste 0 -- -- 54
2019-04-16 12:00:00 19.1 9 Sudeste 19 Este 0 -- -- 61
2019-04-16 11:00:00 17.3 6 Este 13 Nordeste 0 -- -- 69
2019-04-16 10:00:00 14.8 8 Nordeste 14 Este 0 -- -- 80
2019-04-16 09:00:00 11.9 5 Este 8 Este 0 -- -- 91
2019-04-16 08:00:00 9.7 4 Nordeste 6 Nordeste 0 -- -- 90
2019-04-16 07:00:00 10.2 4 Nordeste 6 Nordeste 0 -- -- 90
2019-04-16 06:00:00 10.7 6 Este 9 Sudeste 0 -- -- 89
2019-04-16 05:00:00 11.4 4 Nordeste 7 Sudeste 0 -- -- 87
2019-04-16 04:00:00 12.2 4 Este 7 Sudeste 0 -- -- 85
2019-04-16 03:00:00 13 0 Calma 5 Sudoeste 0 -- -- 85
2019-04-16 02:00:00 14 2 Nordeste 17 Sudoeste 0 -- -- 81
2019-04-16 01:00:00 14.8 9 Sudoeste 18 Sudoeste 0 -- -- 78
2019-04-16 00:00:00 15.5 5 Sudoeste 22 Sudoeste 0 -- -- 75
2019-04-15 23:00:00 16.7 12 Sudoeste 19 Sudoeste 0 -- -- 72
2019-04-15 22:00:00 18.6 14 Sudoeste 35 Sudoeste 0 -- -- 66
2019-04-15 21:00:00 20.5 21 Sudoeste 42 Sudoeste 0 -- -- 57
2019-04-15 20:00:00 22.6 31 Oeste 43 Sudoeste 0 -- -- 48
2019-04-15 19:00:00 23.6 30 Sudoeste 44 Sudoeste 0 -- -- 46
2019-04-15 18:00:00 26 30 Oeste 53 Sudoeste 0 -- -- 32
2019-04-15 17:00:00 26 29 Sudoeste 47 Sudoeste 0 -- -- 28
2019-04-15 16:00:00 26.4 26 Sudoeste 40 Sudoeste 0 -- -- 28
2019-04-15 15:00:00 25.2 18 Sudoeste 32 Sudoeste 0 -- -- 36
2019-04-15 14:00:00 24.1 17 Sudoeste 32 Oeste 0 -- -- 39
2019-04-15 13:00:00 23.6 10 Sudoeste 24 Sudoeste 0 -- -- 44
2019-04-15 12:00:00 22.1 9 Sudoeste 18 Sudoeste 0 -- -- 48
2019-04-15 11:00:00 19.6 7 Sudoeste 13 Sudoeste 0 -- -- 64
2019-04-15 10:00:00 17.4 2 Este 5 Este 0 -- -- 74
2019-04-15 09:00:00 14.9 2 Este 7 Nordeste 0 -- -- 88
2019-04-15 08:00:00 12.9 2 Norte 9 Este 0 -- -- 88
2019-04-15 07:00:00 13.7 4 Nordeste 12 Este 0 -- -- 86
2019-04-15 06:00:00 14.3 8 Nordeste 11 Este 0 -- -- 84
2019-04-15 05:00:00 15.3 5 Este 12 Este 0 -- -- 80
2019-04-15 04:00:00 15.5 9 Este 12 Este 0 -- -- 78
2019-04-15 03:00:00 16.5 7 Este 8 Nordeste 0 -- -- 79
2019-04-15 02:00:00 17.9 4 Nordeste 8 Nordeste 0 -- -- 74
2019-04-15 01:00:00 18.9 3 Nordeste 8 Norte 0 -- -- 69
2019-04-15 00:00:00 19.8 3 Sur 10 Oeste 0 -- -- 63
2019-04-14 23:00:00 21.2 5 Sudeste 10 Sur 0 -- -- 56
2019-04-14 22:00:00 22.5 6 Sudoeste 10 Sudoeste 0 -- -- 52
2019-04-14 21:00:00 24 7 Sur 13 Sudoeste 0 -- -- 47
2019-04-14 20:00:00 26.1 7 Sudoeste 14 Sudoeste 0 -- -- 37
2019-04-14 19:00:00 27.2 9 Sudoeste 18 Oeste 0 -- -- 35
2019-04-14 18:00:00 27 8 Oeste 17 Sudoeste 0 -- -- 35
2019-04-14 17:00:00 27 8 Noroeste 17 Noroeste 0 -- -- 38
2019-04-14 16:00:00 26.6 7 Noroeste 15 Noroeste 0 -- -- 39
2019-04-14 15:00:00 25.2 5 Sudoeste 14 Oeste 0 -- -- 40
2019-04-14 14:00:00 23.9 5 Oeste 14 Sur 0 -- -- 43
2019-04-14 13:00:00 22.8 4 Nordeste 15 Nordeste 0 -- -- 48
2019-04-14 12:00:00 20.7 8 Este 17 Este 0 -- -- 56
2019-04-14 11:00:00 17.7 10 Este 15 Este 0 -- -- 60
2019-04-14 10:00:00 15.3 9 Este 18 Este 0 -- -- 68
2019-04-14 09:00:00 12.4 12 Este 17 Este 0 -- -- 78
2019-04-14 08:00:00 10.3 8 Este 10 Este 0 -- -- 86
2019-04-14 07:00:00 10.2 4 Nordeste 8 Nordeste 0 -- -- 86
2019-04-14 06:00:00 10.7 6 Este 8 Este 0 -- -- 83
2019-04-14 05:00:00 11 5 Este 9 Nordeste 0 -- -- 82
2019-04-14 04:00:00 11.6 0 Calma 3 Noroeste 0 -- -- 76
2019-04-14 03:00:00 12.4 2 Sur 5 Sudeste 0 -- -- 73
2019-04-14 02:00:00 13.8 4 Sur 10 Sur 0 -- -- 63
2019-04-14 01:00:00 14.9 9 Oeste 15 Sudoeste 0 -- -- 60
2019-04-14 00:00:00 16.4 5 Sudoeste 19 Sudoeste 0 -- -- 56
2019-04-13 23:00:00 18.1 12 Oeste 24 Sudoeste 0 -- -- 49
2019-04-13 22:00:00 19.7 17 Sudoeste 24 Oeste 0 -- -- 45
2019-04-13 21:00:00 21.3 17 Oeste 31 Oeste 0 -- -- 39
2019-04-13 20:00:00 24.1 20 Oeste 31 Oeste 0 -- -- 33
2019-04-13 19:00:00 25.1 11 Sudoeste 24 Sur 0 -- -- 27
2019-04-13 18:00:00 25 10 Sudoeste 24 Oeste 0 -- -- 25
2019-04-13 17:00:00 24.8 8 Sudoeste 23 Sudoeste 0 -- -- 26
2019-04-13 16:00:00 24.6 12 Sudoeste 21 Oeste 0 -- -- 26
2019-04-13 15:00:00 23.8 8 Oeste 18 Sudoeste 0 -- -- 28
2019-04-13 14:00:00 23 6 Este 17 Sudoeste 0 -- -- 30
2019-04-13 13:00:00 21 7 Sudeste 14 Sudeste 0 -- -- 41
2019-04-13 12:00:00 19 5 Sudeste 14 Sudeste 0 -- -- 46
2019-04-13 11:00:00 16 8 Este 13 Este 0 -- -- 58
2019-04-13 10:00:00 13.2 9 Este 17 Este 0 -- -- 71
2019-04-13 09:00:00 10.2 9 Este 14 Este 0 -- -- 81
2019-04-13 08:00:00 8.2 11 Este 14 Este 0 -- -- 87
2019-04-13 07:00:00 8.5 7 Nordeste 10 Este 0 -- -- 87
2019-04-13 06:00:00 8.6 5 Este 8 Este 0 -- -- 86
2019-04-13 05:00:00 9.3 6 Este 9 Nordeste 0 -- -- 86
2019-04-13 04:00:00 9.8 3 Este 6 Este 0 -- -- 81
2019-04-13 03:00:00 10.7 4 Este 6 Nordeste 0 -- -- 77
2019-04-13 02:00:00 11.6 6 Sudeste 8 Sudeste 0 -- -- 72
2019-04-13 01:00:00 13.7 4 Oeste 13 Oeste 0 -- -- 63
2019-04-13 00:00:00 15.6 10 Sudoeste 15 Oeste 0 -- -- 54
2019-04-12 23:00:00 16.6 7 Sudoeste 23 Sudoeste 0 -- -- 52
2019-04-12 22:00:00 18 12 Oeste 22 Oeste 0 -- -- 47
2019-04-12 21:00:00 20.5 17 Oeste 30 Oeste 0 -- -- 38
2019-04-12 20:00:00 23 10 Sudoeste 19 Oeste 0 -- -- 29
2019-04-12 19:00:00 23.8 10 Sudoeste 19 Oeste 0 -- -- 27
2019-04-12 18:00:00 23.8 6 Sudoeste 20 Sudoeste 0 -- -- 27
2019-04-12 17:00:00 23.6 5 Este 17 Este 0 -- -- 27
2019-04-12 16:00:00 23.6 5 Noroeste 19 Nordeste 0 -- -- 27
2019-04-12 15:00:00 22.2 5 Sur 15 Sudeste 0 -- -- 29
2019-04-12 14:00:00 21.1 9 Sudeste 19 Sudeste 0 -- -- 33
2019-04-12 13:00:00 20 10 Este 21 Este 0 -- -- 42
2019-04-12 12:00:00 17.4 13 Este 26 Este 0 -- -- 49
2019-04-12 11:00:00 15.1 9 Este 19 Nordeste 0 -- -- 58
2019-04-12 10:00:00 11.8 10 Este 15 Este 0 -- -- 70
2019-04-12 09:00:00 9.7 7 Este 13 Este 0 -- -- 81
2019-04-12 08:00:00 7.8 9 Este 15 Este 0 -- -- 87
2019-04-12 07:00:00 7.5 9 Este 10 Este 0 -- -- 87
2019-04-12 06:00:00 8 3 Este 4 Sudeste 0 -- -- 88
2019-04-12 05:00:00 8.5 0 Calma 6 Este 0 -- -- 86
2019-04-12 04:00:00 9 3 Nordeste 9 Nordeste 0 -- -- 82
2019-04-12 03:00:00 11 5 Norte 8 Oeste 0 -- -- 72
2019-04-12 02:00:00 12.7 7 Oeste 12 Oeste 0 -- -- 69
2019-04-12 01:00:00 12.6 4 Noroeste 9 Noroeste 0 -- -- 79
2019-04-12 00:00:00 14.1 5 Sudoeste 10 Sur 0 -- -- 73
2019-04-11 23:00:00 15.3 3 Este 12 Sur 0 -- -- 57
2019-04-11 22:00:00 16 5 Norte 9 Norte 0 -- -- 46
2019-04-11 21:00:00 18.1 6 Noroeste 19 Oeste 0 -- -- 47
2019-04-11 20:00:00 21.2 15 Oeste 24 Oeste 0 -- -- 31
2019-04-11 19:00:00 21.5 12 Oeste 22 Oeste 0 -- -- 33
2019-04-11 18:00:00 21.7 18 Oeste 26 Oeste 0 -- -- 36
2019-04-11 17:00:00 21.9 10 Sudoeste 22 Oeste 0 -- -- 34
2019-04-11 16:00:00 21.1 5 Oeste 18 Noroeste 0 -- -- 36
2019-04-11 15:00:00 20.3 4 Oeste 16 Noroeste 0 -- -- 40
2019-04-11 14:00:00 18.9 5 Sudeste 14 Sudeste 0 -- -- 42
2019-04-11 13:00:00 17.9 3 Nordeste 12 Sudeste 0 -- -- 46
2019-04-11 12:00:00 16.7 4 Nordeste 10 Nordeste 0 -- -- 51
2019-04-11 11:00:00 15.4 6 Este 14 Nordeste 0 -- -- 58
2019-04-11 10:00:00 12.5 9 Noroeste 12 Norte 0 -- -- 71
2019-04-11 09:00:00 10.2 5 Noroeste 8 Noroeste 0 -- -- 82
2019-04-11 08:00:00 8.1 2 Sur 7 Sudeste 0 -- -- 85
2019-04-11 07:00:00 8.8 3 Sudeste 8 Noroeste 0 -- -- 83
2019-04-11 06:00:00 9.6 6 Noroeste 9 Noroeste 0 -- -- 78
2019-04-11 05:00:00 10.5 3 Noroeste 14 Noroeste 0 -- -- 74
2019-04-11 04:00:00 11.3 5 Noroeste 12 Noroeste -- -- -- 71
2019-04-11 03:00:00 11.9 3 Sudoeste 17 Noroeste 0 -- -- 69
2019-04-11 02:00:00 12.4 6 Noroeste 15 Noroeste 0 -- -- 66
2019-04-11 01:00:00 13.6 8 Noroeste 18 Noroeste 0 -- -- 61
2019-04-11 00:00:00 13.3 9 Noroeste 15 Noroeste 0 -- -- 61
2019-04-10 23:00:00 13 9 Noroeste 13 Noroeste 0 -- -- 63
2019-04-10 22:00:00 14.1 5 Oeste 12 Noroeste 0 -- -- 64
2019-04-10 21:00:00 16.4 9 Noroeste 24 Norte 0 -- -- 50
2019-04-10 20:00:00 19.3 13 Noroeste 30 Noroeste 0 -- -- 39
2019-04-10 19:00:00 20.8 17 Noroeste 30 Noroeste 0 -- -- 34
2019-04-10 18:00:00 20.2 15 Norte 33 Noroeste 0 -- -- 36
2019-04-10 17:00:00 21.5 17 Noroeste 34 Noroeste 0 -- -- 35
2019-04-10 16:00:00 19.5 13 Noroeste 29 Noroeste 0 -- -- 38
2019-04-10 15:00:00 18.5 13 Noroeste 21 Noroeste 0 -- -- 44
2019-04-10 14:00:00 17.8 10 Oeste 21 Oeste 0 -- -- 49
2019-04-10 13:00:00 15.6 5 Sudoeste 13 Oeste 0 -- -- 55
2019-04-10 12:00:00 14.2 5 Oeste 13 Oeste 0 -- -- 60
2019-04-10 11:00:00 13.4 4 Sudoeste 13 Sudoeste 0 -- -- 64
2019-04-10 10:00:00 11.4 6 Oeste 10 Oeste 0 -- -- 76
2019-04-10 09:00:00 9.8 8 Oeste 18 Oeste 0 -- -- 83
2019-04-10 08:00:00 8.9 12 Sudoeste 18 Sudoeste 0 -- -- 83
2019-04-10 07:00:00 8.9 9 Sudoeste 14 Sudoeste 0 -- -- 83
2019-04-10 06:00:00 8.9 6 Oeste 10 Oeste 0 -- -- 83
2019-04-10 05:00:00 9.3 8 Oeste 15 Noroeste 0 -- -- 82
2019-04-10 04:00:00 10.3 10 Noroeste 18 Noroeste 0 -- -- 80
2019-04-10 03:00:00 10.1 9 Oeste 13 Oeste 0 -- -- 84
2019-04-10 02:00:00 11 9 Oeste 13 Oeste 0 -- -- 82
2019-04-10 01:00:00 12.6 11 Oeste 17 Sudoeste 0 -- -- 76
2019-04-10 00:00:00 12.8 11 Oeste 16 Oeste 0 -- -- 74
2019-04-09 23:00:00 13.3 4 Oeste 16 Oeste 0 -- -- 75
2019-04-09 22:00:00 13.9 5 Sudoeste 8 Norte 0 -- -- 72
2019-04-09 21:00:00 14.7 6 Noroeste 17 Oeste 0 -- -- 71
2019-04-09 20:00:00 16.5 5 Noroeste 30 Oeste 0.2 -- -- 68
2019-04-09 19:00:00 17.5 22 Oeste 41 Oeste 0 -- -- 59
2019-04-09 18:00:00 17.4 18 Oeste 32 Oeste 0 -- -- 61
2019-04-09 17:00:00 17 13 Oeste 45 Oeste 0.2 -- -- 61
2019-04-09 16:00:00 18.3 24 Oeste 37 Oeste 0 -- -- 50
2019-04-09 15:00:00 17.6 19 Sudoeste 33 Oeste 0 -- -- 53
2019-04-09 14:00:00 16.8 22 Oeste 31 Oeste 0 -- -- 59
2019-04-09 13:00:00 16.5 16 Oeste 28 Oeste 0 -- -- 62
2019-04-09 12:00:00 14.9 13 Oeste 23 Sudoeste 0 -- -- 73
2019-04-09 11:00:00 13.3 4 Noroeste 9 Oeste 0 -- -- 80
2019-04-09 10:00:00 10.5 3 Sudoeste 5 Oeste 0 -- -- 89
2019-04-09 09:00:00 8.8 2 Noroeste 7 Sur 0 -- -- 91
2019-04-09 08:00:00 8 4 Sur 8 Sudoeste 0 -- -- 90
2019-04-09 07:00:00 7.7 3 Este 8 Sur 0 -- -- 89
2019-04-09 06:00:00 8.5 6 Sur 8 Sur 0 -- -- 88
2019-04-09 05:00:00 8.9 6 Sur 10 Sudoeste 0 -- -- 86
2019-04-09 04:00:00 9.5 8 Sudoeste 10 Sudoeste 0 -- -- 85
2019-04-09 03:00:00 9.6 0 Calma 12 Oeste 0 -- -- 85
2019-04-09 02:00:00 10.6 4 Sudoeste 10 Sudoeste 0 -- -- 85
2019-04-09 01:00:00 11.3 3 Oeste 19 Sudoeste 0 -- -- 87
2019-04-09 00:00:00 12.3 16 Sudoeste 21 Sudoeste 0 -- -- 87
2019-04-08 23:00:00 12.8 9 Sudoeste 18 Sudoeste 0 -- -- 85
2019-04-08 22:00:00 14.4 17 Sudoeste 32 Sudoeste 0 -- -- 77
2019-04-08 21:00:00 15.3 15 Oeste 27 Oeste 0 -- -- 80
2019-04-08 20:00:00 16.3 13 Sudoeste 35 Sudoeste 0 -- -- 75
2019-04-08 19:00:00 17.1 25 Sudoeste 36 Oeste 0 -- -- 66
2019-04-08 18:00:00 14.7 20 Sudoeste 33 Oeste 0.2 -- -- 83
2019-04-08 17:00:00 15 22 Sudoeste 37 Sudoeste 1.2 -- -- 84
2019-04-08 16:00:00 15.9 16 Oeste 44 Sudoeste 0 -- -- 77
2019-04-08 15:00:00 18.4 22 Sudoeste 36 Sudoeste 0.2 -- -- 75
2019-04-08 14:00:00 16 15 Sudoeste 25 Sudoeste 0.2 -- -- 88
2019-04-08 13:00:00 15.1 15 Sudoeste 30 Sudoeste 0 -- -- 84
2019-04-08 12:00:00 14.7 15 Sudoeste 32 Sudoeste 2.8 -- -- 89
2019-04-08 11:00:00 15.6 15 Sudoeste 27 Sudoeste 0 -- -- 86
2019-04-08 10:00:00 14.6 14 Sudoeste 24 Sudoeste 0 -- -- 90
2019-04-08 09:00:00 14.2 10 Sudoeste 18 Sudoeste 0 -- -- 91
2019-04-08 08:00:00 13.8 9 Sudoeste 19 Sudoeste 0.2 -- -- 91
2019-04-08 07:00:00 13.7 8 Sudoeste 19 Sudoeste 0 -- -- 90
2019-04-08 06:00:00 13.8 14 Sudoeste 21 Sudoeste 0 -- -- 91
2019-04-08 05:00:00 13.8 13 Sudoeste 21 Sudoeste 0 -- -- 91
2019-04-08 04:00:00 13.9 12 Sudoeste 21 Sudoeste 0 -- -- 90
2019-04-08 03:00:00 14.3 14 Sudoeste 22 Sudoeste 0 -- -- 90
2019-04-08 02:00:00 14.5 11 Sudoeste 22 Oeste 0 -- -- 91
2019-04-08 01:00:00 14.4 15 Oeste 26 Oeste 1 -- -- 90
2019-04-08 00:00:00 14.3 9 Sudoeste 17 Sudoeste 0 -- -- 89
2019-04-07 23:00:00 14.5 10 Sudoeste 20 Sudoeste 0 -- -- 90
2019-04-07 22:00:00 13.7 3 Sudoeste 6 Sudoeste 0 -- -- 91
2019-04-07 21:00:00 13.7 2 Noroeste 9 Noroeste 0.2 -- -- 91
2019-04-07 20:00:00 13.7 6 Norte 28 Norte 1.6 -- -- 90
2019-04-07 19:00:00 14.4 4 Norte 14 Sudoeste 1.6 -- -- 88
2019-04-07 18:00:00 14.5 9 Sudoeste 22 Sudoeste 0 -- -- 85
2019-04-07 17:00:00 14.8 9 Sudoeste 15 Sudoeste 0 -- -- 74
2019-04-07 16:00:00 13.9 6 Oeste 25 Sudoeste 0 -- -- 74
2019-04-07 15:00:00 14.4 21 Oeste 33 Sudoeste 0 -- -- 74
2019-04-07 14:00:00 15.1 24 Sudoeste 36 Sudoeste 0 -- -- 62
2019-04-07 13:00:00 15.7 19 Oeste 30 Oeste 0 -- -- 63
2019-04-07 12:00:00 14 7 Oeste 19 Oeste 0.2 -- -- 69
2019-04-07 11:00:00 12.5 5 Sudoeste 10 Sudoeste 0 -- -- 75
2019-04-07 10:00:00 10.9 0 Calma 7 Sudoeste 0 -- -- 85
2019-04-07 09:00:00 9.7 0 Calma 14 Sudoeste 0 -- -- 88
2019-04-07 08:00:00 9.3 5 Sudoeste 13 Oeste 0 -- -- 87
2019-04-07 07:00:00 9.5 6 Oeste 16 Sudoeste 0 -- -- 87
2019-04-07 06:00:00 9.5 4 Oeste 14 Oeste 0 -- -- 86
2019-04-07 05:00:00 9.4 6 Oeste 14 Sudoeste 0 -- -- 86
2019-04-07 04:00:00 9.6 10 Oeste 19 Oeste 0 -- -- 85
2019-04-07 03:00:00 9.3 10 Oeste 17 Oeste 0 -- -- 85
2019-04-07 02:00:00 9.6 10 Oeste 24 Oeste 0 -- -- 82
2019-04-07 01:00:00 10.1 14 Oeste 22 Oeste 0 -- -- 81
2019-04-07 00:00:00 9.8 7 Oeste 13 Oeste 0 -- -- 82
2019-04-06 23:00:00 10.8 9 Noroeste 20 Oeste 0 -- -- 82
2019-04-06 22:00:00 10.7 2 Sudoeste 5 Noroeste 0 -- -- 83
2019-04-06 21:00:00 12.3 4 Oeste 17 Noroeste 0 -- -- 76
2019-04-06 20:00:00 12.7 15 Noroeste 33 Sudoeste 0 -- -- 76
2019-04-06 19:00:00 14.2 20 Oeste 37 Oeste 0 -- -- 68
2019-04-06 18:00:00 14.8 19 Oeste 34 Oeste 1 -- -- 66
2019-04-06 17:00:00 13.4 19 Noroeste 38 Sudoeste 0.2 -- -- 68
2019-04-06 16:00:00 13.3 21 Sudoeste 33 Sudoeste 0 -- -- 72
2019-04-06 15:00:00 12 10 Oeste 55 Noroeste 2.4 -- -- 76
2019-04-06 14:00:00 14.4 23 Oeste 33 Sudoeste 0 -- -- 62
2019-04-06 13:00:00 13.4 22 Oeste 33 Oeste 0.6 -- -- 70
2019-04-06 12:00:00 11.9 15 Oeste 27 Oeste 0 -- -- 74
2019-04-06 11:00:00 10.3 12 Sudoeste 17 Sudoeste 0 -- -- 82
2019-04-06 10:00:00 8.9 9 Oeste 13 Oeste 0 -- -- 88
2019-04-06 09:00:00 7.9 4 Oeste 15 Oeste 0.2 -- -- 90
2019-04-06 08:00:00 7.4 5 Oeste 8 Oeste 0 -- -- 90
2019-04-06 07:00:00 7.3 3 Oeste 17 Sudoeste 0 -- -- 88
2019-04-06 06:00:00 7.3 11 Sudoeste 17 Sudoeste 0 -- -- 89
2019-04-06 05:00:00 6.9 2 Sudoeste 10 Sudoeste 0 -- -- 87
2019-04-06 04:00:00 7.8 10 Sudoeste 17 Sudoeste 0 -- -- 85
2019-04-06 03:00:00 8.2 11 Sudoeste 17 Sudoeste 0 -- -- 85
2019-04-06 02:00:00 8.2 8 Oeste 19 Oeste 0 -- -- 84
2019-04-06 01:00:00 8.9 14 Sudoeste 22 Sudoeste 0 -- -- 82
2019-04-06 00:00:00 8.9 15 Oeste 22 Sudoeste 0 -- -- 80
2019-04-05 23:00:00 9.5 16 Oeste 26 Oeste 0 -- -- 79
2019-04-05 22:00:00 10.3 17 Oeste 28 Oeste 0 -- -- 80
2019-04-05 21:00:00 10 9 Oeste 36 Sudoeste 0.6 -- -- 79
2019-04-05 20:00:00 10.5 26 Sudoeste 48 Oeste 0.4 -- -- 74
2019-04-05 19:00:00 14.3 27 Oeste 50 Oeste 0 -- -- 48
2019-04-05 18:00:00 15.2 26 Oeste 44 Oeste 0 -- -- 42
2019-04-05 17:00:00 15.7 26 Oeste 44 Oeste 0 -- -- 38
2019-04-05 16:00:00 14.9 27 Oeste 41 Oeste 0 -- -- 47
2019-04-05 15:00:00 13.5 28 Oeste 42 Oeste 0 -- -- 52
2019-04-05 14:00:00 14.9 26 Oeste 41 Oeste 0 -- -- 49
2019-04-05 13:00:00 13.9 24 Oeste 36 Oeste 0 -- -- 60
2019-04-05 12:00:00 12.4 20 Oeste 32 Sudoeste 0 -- -- 81
2019-04-05 11:00:00 11.6 13 Sudoeste 22 Sudoeste 0.6 -- -- 86
2019-04-05 10:00:00 11.1 8 Sudoeste 17 Sudoeste 0.4 -- -- 89
2019-04-05 09:00:00 10.5 8 Sudoeste 21 Sur 0.4 -- -- 88
2019-04-05 08:00:00 9.9 11 Sur 17 Sur 0.4 -- -- 88
2019-04-05 07:00:00 10 10 Sudoeste 27 Noroeste 4 -- -- 88
2019-04-05 06:00:00 10.5 10 Sur 17 Sur 0.8 -- -- 84
2019-04-05 05:00:00 11 6 Sudoeste 16 Sudoeste 0 -- -- 74
2019-04-05 04:00:00 11.8 13 Oeste 25 Oeste 0 -- -- 59
2019-04-05 03:00:00 12.1 16 Sudoeste 25 Sudoeste 0 -- -- 56
2019-04-05 02:00:00 11.8 14 Sudoeste 22 Oeste 0 -- -- 56
2019-04-05 01:00:00 12.1 17 Sudoeste 26 Sudoeste 0 -- -- 55
2019-04-05 00:00:00 12.6 15 Sudoeste 27 Sur 0 -- -- 60
2019-04-04 23:00:00 13 14 Sudoeste 23 Sudoeste 0 -- -- 55
2019-04-04 22:00:00 14 12 Sudoeste 31 Sudoeste 0 -- -- 46
2019-04-04 21:00:00 15.4 17 Sudoeste 39 Sudoeste 0 -- -- 43
2019-04-04 20:00:00 17.7 24 Sudoeste 44 Sudoeste 0 -- -- 33
2019-04-04 19:00:00 19.2 24 Sudoeste 42 Sudoeste 0 -- -- 28
2019-04-04 18:00:00 20.1 19 Oeste 34 Sudoeste 0 -- -- 20
2019-04-04 17:00:00 19.7 21 Sudoeste 35 Sudoeste 0 -- -- 20
2019-04-04 16:00:00 19.4 20 Sudoeste 30 Sudoeste 0 -- -- 23
2019-04-04 15:00:00 18.7 10 Sudoeste 26 Oeste 0 -- -- 26
2019-04-04 14:00:00 17.1 5 Sudoeste 26 Sudoeste 0 -- -- 28
2019-04-04 13:00:00 15.8 10 Oeste 17 Oeste 0 -- -- 33
2019-04-04 12:00:00 14.3 4 Noroeste 15 Noroeste 0 -- -- 36
2019-04-04 11:00:00 12.8 7 Noroeste 18 Noroeste 0 -- -- 42
2019-04-04 10:00:00 10.7 9 Noroeste 15 Noroeste 0 -- -- 52
2019-04-04 09:00:00 7.6 3 Norte 7 Norte 0 -- -- 68
2019-04-04 08:00:00 7.3 6 Nordeste 8 Noroeste 0 -- -- 63
2019-04-04 07:00:00 7.8 4 Noroeste 9 Norte 0 -- -- 65
2019-04-04 06:00:00 8.5 5 Norte 7 Norte 0 -- -- 62
2019-04-04 05:00:00 8.9 4 Norte 10 Norte 0 -- -- 61
2019-04-04 04:00:00 9.7 4 Norte 9 Noroeste 0 -- -- 64
2019-04-04 03:00:00 10.7 7 Noroeste 11 Norte 0 -- -- 60
2019-04-04 02:00:00 11.9 8 Noroeste 19 Noroeste 0 -- -- 56
2019-04-04 01:00:00 11.9 9 Norte 16 Norte 0 -- -- 60
2019-04-04 00:00:00 13.2 5 Noroeste 10 Noroeste 0 -- -- 59
2019-04-03 23:00:00 14.3 8 Noroeste 11 Oeste 0 -- -- 55
2019-04-03 22:00:00 15.5 8 Noroeste 15 Noroeste 0 -- -- 51
2019-04-03 21:00:00 18 12 Noroeste 26 Oeste 0 -- -- 41
2019-04-03 20:00:00 21.3 17 Oeste 30 Oeste 0 -- -- 29
2019-04-03 19:00:00 22.3 22 Oeste 41 Oeste 0 -- -- 25
2019-04-03 18:00:00 22.9 28 Oeste 49 Oeste 0 -- -- 27
2019-04-03 17:00:00 22.9 32 Oeste 52 Oeste 0 -- -- 26
2019-04-03 16:00:00 23.2 29 Oeste 44 Sudoeste 0 -- -- 25
2019-04-03 15:00:00 22.7 26 Oeste 39 Oeste 0 -- -- 30
2019-04-03 14:00:00 21.5 12 Oeste 21 Sudoeste 0 -- -- 35
2019-04-03 13:00:00 20.1 6 Oeste 13 Oeste 0 -- -- 40
2019-04-03 12:00:00 16.3 4 Este 12 Este 0 -- -- 73
2019-04-03 11:00:00 12 6 Este 12 Este 0 -- -- 92
2019-04-03 10:00:00 10.6 7 Este 13 Este 0 -- -- 92
2019-04-03 09:00:00 9 4 Nordeste 9 Nordeste 0 -- -- 92
2019-04-03 08:00:00 8.5 4 Este 7 Nordeste 0 -- -- 90
2019-04-03 07:00:00 9.6 5 Este 8 Este 0 -- -- 89
2019-04-03 06:00:00 10 4 Este 4 Este 0 -- -- 87
2019-04-03 05:00:00 11 2 Oeste 10 Sudoeste 0 -- -- 87
2019-04-03 04:00:00 11.6 4 Sudoeste 10 Sudoeste 0 -- -- 87
2019-04-03 03:00:00 12.3 3 Este 6 Sudoeste 0 -- -- 84
2019-04-03 02:00:00 13.8 0 Calma 17 Sudoeste 0 -- -- 81
2019-04-03 01:00:00 14.9 9 Sudoeste 16 Sudoeste 0 -- -- 77
2019-04-03 00:00:00 15.7 10 Sudoeste 14 Sudoeste 0 -- -- 72
2019-04-02 23:00:00 17.2 9 Sudoeste 13 Sudoeste 0 -- -- 61
2019-04-02 22:00:00 17.7 9 Sudoeste 13 Sudoeste 0 -- -- 59
2019-04-02 21:00:00 19.3 6 Sudoeste 13 Sudoeste 0 -- -- 52
2019-04-02 20:00:00 21.4 7 Sudoeste 17 Sur 0 -- -- 41
2019-04-02 19:00:00 22.5 8 Sudoeste 17 Sudoeste 0 -- -- 39
2019-04-02 18:00:00 23.1 6 Norte 15 Oeste 0 -- -- 41
2019-04-02 17:00:00 22.5 7 Sudoeste 17 Sudoeste 0 -- -- 42
2019-04-02 16:00:00 22 6 Oeste 14 Oeste 0 -- -- 48
2019-04-02 15:00:00 20.2 7 Sudoeste 15 Sudoeste 0 -- -- 52
2019-04-02 14:00:00 18.9 9 Sudeste 17 Este 0 -- -- 58
2019-04-02 13:00:00 17.5 4 Sudeste 11 Este 0 -- -- 64
2019-04-02 12:00:00 15.8 3 Nordeste 12 Este 0 -- -- 76
2019-04-02 11:00:00 14.5 4 Nordeste 6 Norte 0 -- -- 90
2019-04-02 10:00:00 13.1 3 Este 8 Nordeste 0 -- -- 92
2019-04-02 09:00:00 12.8 2 Nordeste 7 Nordeste 0 -- -- 92
2019-04-02 08:00:00 12.7 5 Este 8 Este 0 -- -- 92
2019-04-02 07:00:00 12.6 3 Este 5 Nordeste 0 -- -- 92
2019-04-02 06:00:00 12.1 0 Calma 6 Este 0 -- -- 92
2019-04-02 05:00:00 11.9 3 Nordeste 6 Sudeste 0 -- -- 92
2019-04-02 04:00:00 10.9 5 Este 6 Este 0 -- -- 91
2019-04-02 03:00:00 12.1 0 Calma 12 Sudoeste 0 -- -- 90
2019-04-02 02:00:00 12.2 5 Sudoeste 10 Sudoeste 0 -- -- 90
2019-04-02 01:00:00 12.9 5 Sur 12 Sudoeste 0 -- -- 88
2019-04-02 00:00:00 13.8 8 Sudoeste 13 Sur 0 -- -- 86
2019-04-01 23:00:00 14.3 6 Sudoeste 12 Sudoeste 0 -- -- 84
2019-04-01 22:00:00 14.9 3 Sur 6 Sur 0.2 -- -- 83
2019-04-01 21:00:00 14.9 2 Noroeste 19 Sur 1.6 -- -- 80
2019-04-01 20:00:00 16.7 12 Sudeste 20 Sur 0 -- -- 72
2019-04-01 19:00:00 18 8 Sudoeste 14 Sur 0 -- -- 58
2019-04-01 18:00:00 17.1 11 Sur 26 Sur 0 -- -- 70
2019-04-01 17:00:00 18 10 Sudoeste 19 Sur 0.2 -- -- 64
2019-04-01 16:00:00 15.9 13 Sur 25 Sudoeste 0.2 -- -- 76
2019-04-01 15:00:00 15.7 7 Sudoeste 30 Sur 0.6 -- -- 74
2019-04-01 14:00:00 17.5 9 Noroeste 26 Sudoeste 0 -- -- 63
2019-04-01 13:00:00 16.4 12 Sur 26 Sur 0 -- -- 71
2019-04-01 12:00:00 17.6 11 Sur 20 Sur 0 -- -- 65
2019-04-01 11:00:00 16.3 13 Sur 20 Sudeste 0 -- -- 69
2019-04-01 10:00:00 14.6 8 Este 15 Este 0 -- -- 78
2019-04-01 09:00:00 13 8 Este 12 Este 0 -- -- 86
2019-04-01 08:00:00 12.7 8 Este 12 Este 0 -- -- 88
2019-04-01 07:00:00 12.7 2 Este 7 Nordeste 0 -- -- 87
2019-04-01 06:00:00 12.7 2 Este 7 Sudeste 0 -- -- 85
2019-04-01 05:00:00 13.9 2 Nordeste 6 Sur 0 -- -- 83
2019-04-01 04:00:00 14.2 6 Sur 14 Sur 0 -- -- 80
2019-04-01 03:00:00 14.1 8 Sudeste 15 Sudeste 0 -- -- 78
2019-04-01 02:00:00 13.7 8 Sudeste 14 Sudeste 0 -- -- 79
2019-04-01 01:00:00 14.2 10 Sur 19 Sudeste 0 -- -- 78
2019-04-01 00:00:00 15 13 Sur 21 Sur 0 -- -- 73
2019-03-31 23:00:00 15.6 15 Sudeste 22 Sudeste 0 -- -- 69
2019-03-31 22:00:00 16.9 14 Sudeste 22 Sudeste 0.2 -- -- 66
2019-03-31 21:00:00 17.3 2 Sudoeste 12 Norte 0 -- -- 67
2019-03-31 20:00:00 18.6 2 Norte 9 Norte 0 -- -- 66
2019-03-31 19:00:00 18.7 7 Norte 15 Noroeste 0 -- -- 64
2019-03-31 18:00:00 15.4 9 Noroeste 33 Norte 0.2 -- -- 78
2019-03-31 17:00:00 19.1 17 Noroeste 38 Noroeste 0 -- -- 59
2019-03-31 16:00:00 23 6 Sudeste 22 Sudeste 0 -- -- 42
2019-03-31 15:00:00 21.7 8 Sur 19 Sudeste 0 -- -- 46
2019-03-31 14:00:00 20.6 8 Este 17 Este 0 -- -- 53
2019-03-31 13:00:00 19.2 4 Este 15 Este 0 -- -- 57
2019-03-31 12:00:00 18 9 Este 21 Este 0 -- -- 63
2019-03-31 11:00:00 16.4 13 Este 23 Este 0 -- -- 72
2019-03-31 10:00:00 12.9 5 Nordeste 10 Nordeste 0 -- -- 85
2019-03-31 09:00:00 11.4 5 Nordeste 8 Nordeste 0 -- -- 88
2019-03-31 08:00:00 11.1 3 Nordeste 6 Nordeste 0 -- -- 86
2019-03-31 07:00:00 11.8 2 Nordeste 9 Nordeste 0 -- -- 86
2019-03-31 06:00:00 11.9 5 Nordeste 8 Nordeste 0 -- -- 87
2019-03-31 05:00:00 11.8 5 Norte 8 Nordeste 0 -- -- 85
2019-03-31 03:00:00 13 5 Este 9 Nordeste 0 -- -- 82
2019-03-31 01:00:00 13.7 4 Este 15 Este 0.2 -- -- 78
2019-03-31 00:00:00 15.4 6 Este 15 Este 0 -- -- 60
2019-03-30 23:00:00 15.2 6 Este 8 Este 0 -- -- 62
2019-03-30 22:00:00 15.5 5 Noroeste 8 Noroeste 0 -- -- 64
2019-03-30 21:00:00 17.5 4 Oeste 15 Sudoeste 0 -- -- 56
2019-03-30 20:00:00 19.2 10 Sudoeste 28 Sudeste 0 -- -- 51
2019-03-30 19:00:00 21.3 24 Sudeste 34 Sudeste 0 -- -- 40
2019-03-30 18:00:00 23.4 21 Sudeste 32 Sudeste 0 -- -- 34
2019-03-30 17:00:00 24.2 21 Este 37 Sudeste 0 -- -- 31
2019-03-30 16:00:00 24.3 18 Este 34 Este 0 -- -- 30
2019-03-30 15:00:00 24.2 17 Este 34 Este 0 -- -- 31
2019-03-30 14:00:00 23.1 20 Este 34 Este 0 -- -- 33
2019-03-30 13:00:00 21.8 19 Este 36 Este 0 -- -- 39
2019-03-30 12:00:00 19.9 22 Este 37 Nordeste 0 -- -- 44
2019-03-30 11:00:00 18.1 24 Este 39 Este 0 -- -- 50
2019-03-30 10:00:00 16 26 Este 38 Este 0 -- -- 56
2019-03-30 09:00:00 14.1 21 Este 36 Este 0 -- -- 62
2019-03-30 08:00:00 11.9 19 Este 30 Este 0 -- -- 71
2019-03-30 07:00:00 11.1 17 Este 27 Este 0 -- -- 73
2019-03-30 06:00:00 11.4 17 Este 26 Este 0 -- -- 72
2019-03-30 05:00:00 11.6 14 Este 23 Nordeste 0 -- -- 71
2019-03-30 04:00:00 12 12 Este 20 Este 0 -- -- 70
2019-03-30 03:00:00 12.1 12 Este 22 Este 0 -- -- 69
2019-03-30 02:00:00 12 8 Este 13 Este 0 -- -- 68
2019-03-30 01:00:00 12.9 7 Este 18 Este 0 -- -- 63
2019-03-30 00:00:00 13.7 10 Este 21 Este 0 -- -- 59
2019-03-29 23:00:00 14.6 11 Este 16 Este 0 -- -- 54
2019-03-29 22:00:00 15.9 10 Este 18 Este 0 -- -- 50
2019-03-29 21:00:00 17.3 14 Este 20 Este 0 -- -- 45
2019-03-29 20:00:00 18.9 17 Sudeste 27 Sudeste 0 -- -- 42
2019-03-29 19:00:00 20.3 21 Sudeste 31 Sudeste 0 -- -- 37
2019-03-29 18:00:00 22.4 19 Este 35 Este 0 -- -- 33
2019-03-29 17:00:00 23.4 16 Este 30 Este 0 -- -- 31
2019-03-29 16:00:00 24.1 13 Nordeste 31 Este 0 -- -- 30
2019-03-29 15:00:00 23.6 15 Este 32 Este 0 -- -- 30
2019-03-29 14:00:00 22.6 20 Este 39 Este 0 -- -- 31
2019-03-29 13:00:00 21.3 24 Este 35 Este 0 -- -- 33
2019-03-29 12:00:00 19 21 Este 36 Este 0 -- -- 37
2019-03-29 11:00:00 16.8 25 Este 43 Este 0 -- -- 38
2019-03-29 10:00:00 14.5 23 Este 38 Este 0 -- -- 44
2019-03-29 09:00:00 11.1 23 Este 38 Este 0 -- -- 56
2019-03-29 08:00:00 8.9 18 Este 32 Este 0 -- -- 65
2019-03-29 07:00:00 8.7 20 Este 32 Este 0 -- -- 68
2019-03-29 06:00:00 9.2 20 Este 28 Este 0 -- -- 69
2019-03-29 05:00:00 9.2 16 Este 28 Este 0 -- -- 67
2019-03-29 04:00:00 9.4 16 Este 26 Este 0 -- -- 66
2019-03-29 03:00:00 10.4 15 Este 22 Nordeste 0 -- -- 63
2019-03-29 02:00:00 11.1 14 Este 26 Este 0 -- -- 64
2019-03-29 01:00:00 11.7 17 Este 27 Este 0 -- -- 61
2019-03-29 00:00:00 12.3 16 Este 25 Este 0 -- -- 54
2019-03-28 23:00:00 12 14 Este 21 Este 0 -- -- 43
2019-03-28 22:00:00 13.2 10 Nordeste 31 Sudeste 0 -- -- 38
2019-03-28 21:00:00 15.5 21 Sudeste 33 Sudeste 0 -- -- 30
2019-03-28 20:00:00 17.3 23 Sudeste 31 Sudeste 0 -- -- 25
2019-03-28 19:00:00 19.7 21 Sur 35 Sudeste 0 -- -- 20
2019-03-28 18:00:00 20.9 26 Sudeste 44 Sudeste 0 -- -- 18
2019-03-28 17:00:00 21.9 29 Sudeste 41 Sudeste 0 -- -- 17
2019-03-28 16:00:00 22.3 28 Sudeste 49 Sudeste 0 -- -- 21
2019-03-28 15:00:00 22.2 27 Sudeste 49 Sudeste 0 -- -- 24
2019-03-28 14:00:00 21.3 27 Este 51 Este 0 -- -- 27
2019-03-28 13:00:00 20.7 27 Sudeste 44 Este 0 -- -- 31
2019-03-28 12:00:00 19.4 24 Este 45 Este 0 -- -- 37
2019-03-28 11:00:00 17 19 Este 32 Este 0 -- -- 47
2019-03-28 10:00:00 14.3 20 Este 30 Este 0 -- -- 57
2019-03-28 09:00:00 11.5 17 Este 29 Este 0 -- -- 67
2019-03-28 08:00:00 8.8 17 Este 26 Este 0 -- -- 77
2019-03-28 07:00:00 8.1 13 Este 25 Este 0 -- -- 77
2019-03-28 06:00:00 8.8 13 Este 23 Este 0 -- -- 75
2019-03-28 05:00:00 9 14 Este 23 Este 0 -- -- 74
2019-03-28 04:00:00 8.7 8 Nordeste 12 Nordeste 0 -- -- 74
2019-03-28 03:00:00 9.1 6 Nordeste 12 Este 0 -- -- 71
2019-03-28 02:00:00 9.8 7 Este 12 Este 0 -- -- 67
2019-03-28 01:00:00 10 10 Nordeste 13 Nordeste 0 -- -- 66
2019-03-28 00:00:00 11.2 6 Este 9 Sudeste 0 -- -- 60
2019-03-27 23:00:00 12.7 5 Sudeste 13 Sur 0 -- -- 46
2019-03-27 22:00:00 14.6 5 Sur 14 Oeste 0 -- -- 41
2019-03-27 21:00:00 15.6 10 Sur 18 Sur 0 -- -- 39
2019-03-27 20:00:00 18 13 Sudeste 20 Sudeste 0 -- -- 30
2019-03-27 19:00:00 21.8 10 Sudeste 30 Este 0 -- -- 19
2019-03-27 18:00:00 22.9 17 Este 31 Este 0 -- -- 16
2019-03-27 17:00:00 23.1 21 Sudeste 30 Este 0 -- -- 17
2019-03-27 16:00:00 22.8 11 Este 35 Este 0 -- -- 19
2019-03-27 15:00:00 22.6 15 Nordeste 33 Este 0 -- -- 20
2019-03-27 14:00:00 21.6 19 Este 34 Sudeste 0 -- -- 21
2019-03-27 13:00:00 20.3 23 Este 35 Este 0 -- -- 23
2019-03-27 12:00:00 18.8 17 Este 28 Este 0 -- -- 32
2019-03-27 11:00:00 17.6 18 Este 32 Este 0 -- -- 35
2019-03-27 10:00:00 15.9 18 Este 27 Este 0 -- -- 54
2019-03-27 09:00:00 13.8 17 Este 29 Este 0 -- -- 65
2019-03-27 08:00:00 11.4 12 Este 23 Este 0 -- -- 71
2019-03-27 07:00:00 11.2 16 Este 24 Este 0 -- -- 68
2019-03-27 06:00:00 11.5 14 Nordeste 22 Este 0 -- -- 68
2019-03-27 05:00:00 11.9 12 Nordeste 17 Este 0 -- -- 69
2019-03-27 04:00:00 12.3 10 Este 20 Este 0 -- -- 70
2019-03-27 03:00:00 12.7 10 Este 20 Este 0 -- -- 72
2019-03-27 02:00:00 13.6 15 Este 21 Este 0 -- -- 69
2019-03-27 01:00:00 14.1 12 Este 19 Este 0 -- -- 66
2019-03-27 00:00:00 14.4 11 Este 15 Este 0 -- -- 60